sensor_id;sensor_type;location;lat;lon;timestamp;noise_LAeq;noise_LA_min;noise_LA_max;noise_LA01;noise_LA95
66449;Laerm;56828;52.294;4.666;2023-04-03T00:00:02;36.53;33.95;38.74;;
66449;Laerm;56828;52.294;4.666;2023-04-03T00:00:25;35.84;34.00;37.99;;
66449;Laerm;56828;52.294;4.666;2023-04-03T00:00:35;36.28;34.02;39.12;;
66449;Laerm;56828;52.294;4.666;2023-04-03T00:00:45;37.01;34.17;39.95;;
66449;Laerm;56828;52.294;4.666;2023-04-03T00:00:56;36.86;32.80;40.97;;
66449;Laerm;56828;52.294;4.666;2023-04-03T00:01:07;40.08;35.49;44.39;;
66449;Laerm;56828;52.294;4.666;2023-04-03T00:01:17;44.50;38.52;49.40;;
66449;Laerm;56828;52.294;4.666;2023-04-03T00:01:28;38.92;33.83;42.95;;
66449;Laerm;56828;52.294;4.666;2023-04-03T00:01:38;38.84;34.94;42.60;;
66449;Laerm;56828;52.294;4.666;2023-04-03T00:01:49;36.77;34.22;41.06;;
66449;Laerm;56828;52.294;4.666;2023-04-03T00:01:59;35.23;33.29;37.46;;
66449;Laerm;56828;52.294;4.666;2023-04-03T00:02:09;35.74;33.50;37.86;;
66449;Laerm;56828;52.294;4.666;2023-04-03T00:02:20;36.24;34.02;38.21;;
66449;Laerm;56828;52.294;4.666;2023-04-03T00:02:30;35.58;33.42;37.49;;
66449;Laerm;56828;52.294;4.666;2023-04-03T00:02:40;36.28;34.06;38.14;;
66449;Laerm;56828;52.294;4.666;2023-04-03T00:02:50;35.47;33.22;37.35;;
66449;Laerm;56828;52.294;4.666;2023-04-03T00:03:01;34.62;32.98;36.66;;
66449;Laerm;56828;52.294;4.666;2023-04-03T00:03:11;35.31;33.16;37.13;;
66449;Laerm;56828;52.294;4.666;2023-04-03T00:03:21;35.44;33.68;37.33;;
66449;Laerm;56828;52.294;4.666;2023-04-03T00:03:32;35.45;33.50;37.11;;
66449;Laerm;56828;52.294;4.666;2023-04-03T00:03:43;36.24;34.03;38.69;;
66449;Laerm;56828;52.294;4.666;2023-04-03T00:03:53;36.16;33.88;38.57;;
66449;Laerm;56828;52.294;4.666;2023-04-03T00:04:04;36.81;34.28;38.74;;
66449;Laerm;56828;52.294;4.666;2023-04-03T00:04:15;35.82;32.85;38.89;;
66449;Laerm;56828;52.294;4.666;2023-04-03T00:04:25;35.60;32.69;39.34;;
66449;Laerm;56828;52.294;4.666;2023-04-03T00:04:35;35.18;33.40;36.69;;
66449;Laerm;56828;52.294;4.666;2023-04-03T00:04:46;36.88;34.39;39.12;;
66449;Laerm;56828;52.294;4.666;2023-04-03T00:04:56;39.26;34.22;57.55;;
66449;Laerm;56828;52.294;4.666;2023-04-03T00:05:07;36.09;33.54;41.91;;
66449;Laerm;56828;52.294;4.666;2023-04-03T00:05:17;35.12;32.64;36.87;;
66449;Laerm;56828;52.294;4.666;2023-04-03T00:05:27;35.18;33.31;37.52;;
66449;Laerm;56828;52.294;4.666;2023-04-03T00:05:38;35.46;32.86;37.85;;
66449;Laerm;56828;52.294;4.666;2023-04-03T00:05:48;35.72;33.66;37.42;;
66449;Laerm;56828;52.294;4.666;2023-04-03T00:05:58;35.70;33.27;37.64;;
66449;Laerm;56828;52.294;4.666;2023-04-03T00:06:10;36.10;33.74;39.01;;
66449;Laerm;56828;52.294;4.666;2023-04-03T00:06:21;39.40;35.49;42.66;;
66449;Laerm;56828;52.294;4.666;2023-04-03T00:06:32;42.85;37.34;49.20;;
66449;Laerm;56828;52.294;4.666;2023-04-03T00:06:42;44.70;39.93;49.25;;
66449;Laerm;56828;52.294;4.666;2023-04-03T00:06:53;47.63;40.52;53.79;;
66449;Laerm;56828;52.294;4.666;2023-04-03T00:07:03;43.95;35.77;53.35;;
66449;Laerm;56828;52.294;4.666;2023-04-03T00:07:13;39.83;36.21;44.61;;
66449;Laerm;56828;52.294;4.666;2023-04-03T00:07:24;39.97;36.96;43.90;;
66449;Laerm;56828;52.294;4.666;2023-04-03T00:07:35;40.44;37.49;44.47;;
66449;Laerm;56828;52.294;4.666;2023-04-03T00:07:48;39.95;37.10;43.98;;
66449;Laerm;56828;52.294;4.666;2023-04-03T00:08:00;46.87;38.67;53.65;;
66449;Laerm;56828;52.294;4.666;2023-04-03T00:08:12;43.44;36.70;49.48;;
66449;Laerm;56828;52.294;4.666;2023-04-03T00:08:22;38.18;35.23;41.15;;
66449;Laerm;56828;52.294;4.666;2023-04-03T00:08:32;39.48;35.89;44.17;;
66449;Laerm;56828;52.294;4.666;2023-04-03T00:08:43;41.88;35.85;45.91;;
66449;Laerm;56828;52.294;4.666;2023-04-03T00:08:53;40.28;36.22;43.52;;
66449;Laerm;56828;52.294;4.666;2023-04-03T00:09:04;40.81;36.81;44.12;;
66449;Laerm;56828;52.294;4.666;2023-04-03T00:09:15;43.42;39.46;48.12;;
66449;Laerm;56828;52.294;4.666;2023-04-03T00:09:25;44.15;38.91;50.23;;
66449;Laerm;56828;52.294;4.666;2023-04-03T00:09:36;45.49;38.95;50.92;;
66449;Laerm;56828;52.294;4.666;2023-04-03T00:09:46;39.40;35.98;44.18;;
66449;Laerm;56828;52.294;4.666;2023-04-03T00:09:56;38.62;36.09;41.75;;
66449;Laerm;56828;52.294;4.666;2023-04-03T00:10:07;36.87;33.20;39.45;;
66449;Laerm;56828;52.294;4.666;2023-04-03T00:10:17;39.53;34.07;45.21;;
66449;Laerm;56828;52.294;4.666;2023-04-03T00:10:28;42.75;34.62;47.15;;
66449;Laerm;56828;52.294;4.666;2023-04-03T00:10:38;38.76;33.85;43.26;;
66449;Laerm;56828;52.294;4.666;2023-04-03T00:10:48;35.20;32.00;37.28;;
66449;Laerm;56828;52.294;4.666;2023-04-03T00:10:59;34.65;31.94;36.79;;
66449;Laerm;56828;52.294;4.666;2023-04-03T00:11:09;34.82;32.48;37.51;;
66449;Laerm;56828;52.294;4.666;2023-04-03T00:11:20;34.65;32.22;38.26;;
66449;Laerm;56828;52.294;4.666;2023-04-03T00:11:30;34.33;32.04;36.02;;
66449;Laerm;56828;52.294;4.666;2023-04-03T00:11:41;34.95;32.54;37.70;;
66449;Laerm;56828;52.294;4.666;2023-04-03T00:11:51;35.61;33.07;37.58;;
66449;Laerm;56828;52.294;4.666;2023-04-03T00:12:01;34.97;32.77;37.07;;
66449;Laerm;56828;52.294;4.666;2023-04-03T00:12:11;35.05;32.83;36.80;;
66449;Laerm;56828;52.294;4.666;2023-04-03T00:12:22;36.12;34.21;38.02;;
66449;Laerm;56828;52.294;4.666;2023-04-03T00:12:32;35.78;33.23;38.39;;
66449;Laerm;56828;52.294;4.666;2023-04-03T00:12:42;35.30;33.06;37.42;;
66449;Laerm;56828;52.294;4.666;2023-04-03T00:12:53;35.24;32.98;37.46;;
66449;Laerm;56828;52.294;4.666;2023-04-03T00:13:03;34.67;32.04;36.43;;
66449;Laerm;56828;52.294;4.666;2023-04-03T00:13:14;34.92;32.86;37.14;;
66449;Laerm;56828;52.294;4.666;2023-04-03T00:13:24;34.80;32.94;36.58;;
66449;Laerm;56828;52.294;4.666;2023-04-03T00:13:35;35.03;32.75;37.12;;
66449;Laerm;56828;52.294;4.666;2023-04-03T00:13:49;35.31;33.29;37.41;;
66449;Laerm;56828;52.294;4.666;2023-04-03T00:13:59;35.54;33.38;37.78;;
66449;Laerm;56828;52.294;4.666;2023-04-03T00:14:10;35.65;33.23;37.94;;
66449;Laerm;56828;52.294;4.666;2023-04-03T00:14:20;36.12;33.99;38.07;;
66449;Laerm;56828;52.294;4.666;2023-04-03T00:14:30;35.67;33.24;37.47;;
66449;Laerm;56828;52.294;4.666;2023-04-03T00:14:41;36.34;33.98;38.25;;
66449;Laerm;56828;52.294;4.666;2023-04-03T00:14:51;35.73;33.83;37.54;;
66449;Laerm;56828;52.294;4.666;2023-04-03T00:15:01;35.64;33.18;37.50;;
66449;Laerm;56828;52.294;4.666;2023-04-03T00:15:12;35.44;33.69;37.18;;
66449;Laerm;56828;52.294;4.666;2023-04-03T00:15:22;35.11;33.07;37.08;;
66449;Laerm;56828;52.294;4.666;2023-04-03T00:15:33;34.74;32.49;37.00;;
66449;Laerm;56828;52.294;4.666;2023-04-03T00:15:43;35.30;33.24;37.29;;
66449;Laerm;56828;52.294;4.666;2023-04-03T00:15:54;35.58;33.49;37.93;;
66449;Laerm;56828;52.294;4.666;2023-04-03T00:16:05;36.84;33.96;38.92;;
66449;Laerm;56828;52.294;4.666;2023-04-03T00:16:15;35.44;33.22;37.58;;
66449;Laerm;56828;52.294;4.666;2023-04-03T00:16:26;35.14;33.27;37.36;;
66449;Laerm;56828;52.294;4.666;2023-04-03T00:16:36;36.03;32.06;45.71;;
66449;Laerm;56828;52.294;4.666;2023-04-03T00:16:46;35.90;33.15;43.06;;
66449;Laerm;56828;52.294;4.666;2023-04-03T00:16:57;37.67;33.79;42.77;;
66449;Laerm;56828;52.294;4.666;2023-04-03T00:17:17;35.78;33.23;38.15;;
66449;Laerm;56828;52.294;4.666;2023-04-03T00:17:28;35.38;33.38;37.27;;
66449;Laerm;56828;52.294;4.666;2023-04-03T00:17:38;35.11;32.99;38.46;;
66449;Laerm;56828;52.294;4.666;2023-04-03T00:17:48;35.19;32.85;37.66;;
66449;Laerm;56828;52.294;4.666;2023-04-03T00:17:59;35.45;33.60;37.42;;
66449;Laerm;56828;52.294;4.666;2023-04-03T00:18:09;35.95;33.47;39.26;;
66449;Laerm;56828;52.294;4.666;2023-04-03T00:18:31;39.59;36.00;44.37;;
66449;Laerm;56828;52.294;4.666;2023-04-03T00:18:42;36.92;33.91;43.40;;
66449;Laerm;56828;52.294;4.666;2023-04-03T00:18:52;37.99;33.98;45.90;;
66449;Laerm;56828;52.294;4.666;2023-04-03T00:19:02;36.58;33.48;44.25;;
66449;Laerm;56828;52.294;4.666;2023-04-03T00:19:12;36.37;33.17;40.77;;
66449;Laerm;56828;52.294;4.666;2023-04-03T00:19:23;37.01;34.07;40.76;;
66449;Laerm;56828;52.294;4.666;2023-04-03T00:19:33;35.75;33.45;37.95;;
66449;Laerm;56828;52.294;4.666;2023-04-03T00:19:43;35.71;33.43;38.37;;
66449;Laerm;56828;52.294;4.666;2023-04-03T00:19:54;35.75;33.44;37.85;;
66449;Laerm;56828;52.294;4.666;2023-04-03T00:20:05;35.67;33.58;37.77;;
66449;Laerm;56828;52.294;4.666;2023-04-03T00:20:16;35.16;33.07;38.00;;
66449;Laerm;56828;52.294;4.666;2023-04-03T00:20:26;35.23;32.89;38.95;;
66449;Laerm;56828;52.294;4.666;2023-04-03T00:20:37;35.88;32.36;38.66;;
66449;Laerm;56828;52.294;4.666;2023-04-03T00:20:48;37.91;34.89;41.97;;
66449;Laerm;56828;52.294;4.666;2023-04-03T00:20:58;38.64;36.03;43.88;;
66449;Laerm;56828;52.294;4.666;2023-04-03T00:21:10;45.61;37.11;53.26;;
66449;Laerm;56828;52.294;4.666;2023-04-03T00:21:22;41.98;34.58;52.29;;
66449;Laerm;56828;52.294;4.666;2023-04-03T00:21:32;35.48;33.32;37.93;;
66449;Laerm;56828;52.294;4.666;2023-04-03T00:21:42;35.07;32.39;36.92;;
66449;Laerm;56828;52.294;4.666;2023-04-03T00:21:52;36.22;33.35;39.91;;
66449;Laerm;56828;52.294;4.666;2023-04-03T00:22:03;36.46;34.19;38.80;;
66449;Laerm;56828;52.294;4.666;2023-04-03T00:22:13;35.21;32.80;38.14;;
66449;Laerm;56828;52.294;4.666;2023-04-03T00:22:24;35.17;32.76;37.57;;
66449;Laerm;56828;52.294;4.666;2023-04-03T00:22:36;34.93;32.72;36.68;;
66449;Laerm;56828;52.294;4.666;2023-04-03T00:22:46;35.30;32.95;37.52;;
66449;Laerm;56828;52.294;4.666;2023-04-03T00:23:01;35.51;32.62;37.81;;
66449;Laerm;56828;52.294;4.666;2023-04-03T00:23:11;36.85;33.99;39.02;;
66449;Laerm;56828;52.294;4.666;2023-04-03T00:23:21;36.98;34.84;44.72;;
66449;Laerm;56828;52.294;4.666;2023-04-03T00:23:33;36.36;33.71;38.57;;
66449;Laerm;56828;52.294;4.666;2023-04-03T00:23:44;35.54;33.40;42.23;;
66449;Laerm;56828;52.294;4.666;2023-04-03T00:23:54;35.78;33.22;37.85;;
66449;Laerm;56828;52.294;4.666;2023-04-03T00:24:05;35.56;33.42;38.48;;
66449;Laerm;56828;52.294;4.666;2023-04-03T00:24:16;35.11;32.91;37.26;;
66449;Laerm;56828;52.294;4.666;2023-04-03T00:24:26;35.87;33.50;42.02;;
66449;Laerm;56828;52.294;4.666;2023-04-03T00:24:37;35.44;32.91;37.75;;
66449;Laerm;56828;52.294;4.666;2023-04-03T00:24:50;36.18;34.13;38.12;;
66449;Laerm;56828;52.294;4.666;2023-04-03T00:25:00;36.25;33.60;38.43;;
66449;Laerm;56828;52.294;4.666;2023-04-03T00:25:10;36.37;34.24;38.88;;
66449;Laerm;56828;52.294;4.666;2023-04-03T00:25:21;36.47;33.88;39.70;;
66449;Laerm;56828;52.294;4.666;2023-04-03T00:25:31;37.65;35.17;40.18;;
66449;Laerm;56828;52.294;4.666;2023-04-03T00:25:42;36.45;33.80;38.36;;
66449;Laerm;56828;52.294;4.666;2023-04-03T00:25:52;35.52;33.66;37.87;;
66449;Laerm;56828;52.294;4.666;2023-04-03T00:26:03;36.03;34.21;38.18;;
66449;Laerm;56828;52.294;4.666;2023-04-03T00:26:13;35.22;33.31;37.92;;
66449;Laerm;56828;52.294;4.666;2023-04-03T00:26:24;36.34;34.18;40.18;;
66449;Laerm;56828;52.294;4.666;2023-04-03T00:26:34;36.10;33.50;37.91;;
66449;Laerm;56828;52.294;4.666;2023-04-03T00:26:45;35.98;33.33;37.92;;
66449;Laerm;56828;52.294;4.666;2023-04-03T00:26:55;34.41;32.40;37.16;;
66449;Laerm;56828;52.294;4.666;2023-04-03T00:27:05;34.53;32.52;36.47;;
66449;Laerm;56828;52.294;4.666;2023-04-03T00:27:16;34.84;32.76;36.39;;
66449;Laerm;56828;52.294;4.666;2023-04-03T00:27:26;35.23;33.11;37.44;;
66449;Laerm;56828;52.294;4.666;2023-04-03T00:27:37;36.21;33.13;38.74;;
66449;Laerm;56828;52.294;4.666;2023-04-03T00:27:48;35.23;33.33;37.56;;
66449;Laerm;56828;52.294;4.666;2023-04-03T00:28:01;36.05;33.55;38.24;;
66449;Laerm;56828;52.294;4.666;2023-04-03T00:28:11;35.89;33.92;37.54;;
66449;Laerm;56828;52.294;4.666;2023-04-03T00:28:21;35.74;33.92;37.52;;
66449;Laerm;56828;52.294;4.666;2023-04-03T00:28:32;35.45;33.25;37.50;;
66449;Laerm;56828;52.294;4.666;2023-04-03T00:28:42;34.68;33.18;36.66;;
66449;Laerm;56828;52.294;4.666;2023-04-03T00:28:52;34.94;32.68;37.16;;
66449;Laerm;56828;52.294;4.666;2023-04-03T00:29:03;34.66;32.91;36.21;;
66449;Laerm;56828;52.294;4.666;2023-04-03T00:29:13;36.20;33.71;38.77;;
66449;Laerm;56828;52.294;4.666;2023-04-03T00:29:23;36.53;34.23;39.97;;
66449;Laerm;56828;52.294;4.666;2023-04-03T00:29:34;36.43;33.85;40.45;;
66449;Laerm;56828;52.294;4.666;2023-04-03T00:29:44;35.65;33.45;38.90;;
66449;Laerm;56828;52.294;4.666;2023-04-03T00:29:55;35.70;33.40;38.12;;
66449;Laerm;56828;52.294;4.666;2023-04-03T00:30:05;36.47;34.03;40.80;;
66449;Laerm;56828;52.294;4.666;2023-04-03T00:30:17;42.07;37.27;47.78;;
66449;Laerm;56828;52.294;4.666;2023-04-03T00:30:28;47.59;37.46;53.38;;
66449;Laerm;56828;52.294;4.666;2023-04-03T00:30:38;38.37;34.59;42.86;;
66449;Laerm;56828;52.294;4.666;2023-04-03T00:30:49;35.65;33.54;38.08;;
66449;Laerm;56828;52.294;4.666;2023-04-03T00:31:00;35.35;33.48;37.79;;
66449;Laerm;56828;52.294;4.666;2023-04-03T00:31:10;36.28;34.14;38.68;;
66449;Laerm;56828;52.294;4.666;2023-04-03T00:31:21;35.84;33.48;39.15;;
66449;Laerm;56828;52.294;4.666;2023-04-03T00:31:31;35.32;33.57;37.19;;
66449;Laerm;56828;52.294;4.666;2023-04-03T00:31:41;35.69;33.08;39.71;;
66449;Laerm;56828;52.294;4.666;2023-04-03T00:31:51;35.34;32.67;39.60;;
66449;Laerm;56828;52.294;4.666;2023-04-03T00:32:02;35.52;33.15;37.35;;
66449;Laerm;56828;52.294;4.666;2023-04-03T00:32:12;34.95;33.10;36.81;;
66449;Laerm;56828;52.294;4.666;2023-04-03T00:32:23;34.39;31.98;37.09;;
66449;Laerm;56828;52.294;4.666;2023-04-03T00:32:33;34.49;32.38;36.16;;
66449;Laerm;56828;52.294;4.666;2023-04-03T00:32:43;34.55;32.81;36.36;;
66449;Laerm;56828;52.294;4.666;2023-04-03T00:32:54;35.00;32.86;36.95;;
66449;Laerm;56828;52.294;4.666;2023-04-03T00:33:04;34.85;33.04;36.28;;
66449;Laerm;56828;52.294;4.666;2023-04-03T00:33:14;35.14;32.90;36.85;;
66449;Laerm;56828;52.294;4.666;2023-04-03T00:33:25;35.40;32.99;37.54;;
66449;Laerm;56828;52.294;4.666;2023-04-03T00:33:35;34.98;32.90;36.75;;
66449;Laerm;56828;52.294;4.666;2023-04-03T00:33:45;35.31;33.06;39.85;;
66449;Laerm;56828;52.294;4.666;2023-04-03T00:33:55;40.03;33.93;49.78;;
66449;Laerm;56828;52.294;4.666;2023-04-03T00:34:06;35.46;33.16;42.20;;
66449;Laerm;56828;52.294;4.666;2023-04-03T00:34:16;35.27;32.96;37.46;;
66449;Laerm;56828;52.294;4.666;2023-04-03T00:34:26;35.74;33.66;38.42;;
66449;Laerm;56828;52.294;4.666;2023-04-03T00:34:37;35.19;33.11;37.18;;
66449;Laerm;56828;52.294;4.666;2023-04-03T00:34:47;35.29;33.30;37.38;;
66449;Laerm;56828;52.294;4.666;2023-04-03T00:34:57;35.02;32.67;37.69;;
66449;Laerm;56828;52.294;4.666;2023-04-03T00:35:08;34.72;32.78;36.62;;
66449;Laerm;56828;52.294;4.666;2023-04-03T00:35:19;34.85;31.92;36.58;;
66449;Laerm;56828;52.294;4.666;2023-04-03T00:35:29;36.62;33.53;40.86;;
66449;Laerm;56828;52.294;4.666;2023-04-03T00:35:40;36.17;33.61;39.33;;
66449;Laerm;56828;52.294;4.666;2023-04-03T00:35:51;36.14;33.85;39.78;;
66449;Laerm;56828;52.294;4.666;2023-04-03T00:36:08;35.46;33.40;38.52;;
66449;Laerm;56828;52.294;4.666;2023-04-03T00:36:19;36.06;33.37;38.65;;
66449;Laerm;56828;52.294;4.666;2023-04-03T00:36:29;35.09;33.04;37.52;;
66449;Laerm;56828;52.294;4.666;2023-04-03T00:36:40;35.55;33.10;37.47;;
66449;Laerm;56828;52.294;4.666;2023-04-03T00:36:50;35.29;33.40;37.71;;
66449;Laerm;56828;52.294;4.666;2023-04-03T00:37:01;35.25;33.46;37.71;;
66449;Laerm;56828;52.294;4.666;2023-04-03T00:37:12;34.68;32.87;36.50;;
66449;Laerm;56828;52.294;4.666;2023-04-03T00:37:22;34.55;32.50;36.57;;
66449;Laerm;56828;52.294;4.666;2023-04-03T00:37:32;35.18;33.22;37.01;;
66449;Laerm;56828;52.294;4.666;2023-04-03T00:37:43;34.94;33.18;36.92;;
66449;Laerm;56828;52.294;4.666;2023-04-03T00:37:54;36.31;33.77;38.57;;
66449;Laerm;56828;52.294;4.666;2023-04-03T00:38:05;35.69;33.30;37.50;;
66449;Laerm;56828;52.294;4.666;2023-04-03T00:38:16;35.68;33.42;37.75;;
66449;Laerm;56828;52.294;4.666;2023-04-03T00:38:26;36.40;33.91;38.62;;
66449;Laerm;56828;52.294;4.666;2023-04-03T00:38:37;36.06;33.93;38.13;;
66449;Laerm;56828;52.294;4.666;2023-04-03T00:38:47;35.27;33.28;37.52;;
66449;Laerm;56828;52.294;4.666;2023-04-03T00:38:57;35.23;33.12;37.12;;
66449;Laerm;56828;52.294;4.666;2023-04-03T00:39:08;35.46;33.31;37.43;;
66449;Laerm;56828;52.294;4.666;2023-04-03T00:39:18;34.93;32.70;37.46;;
66449;Laerm;56828;52.294;4.666;2023-04-03T00:39:28;35.47;33.12;37.74;;
66449;Laerm;56828;52.294;4.666;2023-04-03T00:39:39;35.49;32.68;37.92;;
66449;Laerm;56828;52.294;4.666;2023-04-03T00:39:49;34.97;31.92;37.70;;
66449;Laerm;56828;52.294;4.666;2023-04-03T00:40:02;34.56;32.28;36.62;;
66449;Laerm;56828;52.294;4.666;2023-04-03T00:40:14;34.68;32.70;36.19;;
66449;Laerm;56828;52.294;4.666;2023-04-03T00:40:25;34.41;31.89;36.39;;
66449;Laerm;56828;52.294;4.666;2023-04-03T00:40:37;34.68;32.65;36.44;;
66449;Laerm;56828;52.294;4.666;2023-04-03T00:40:48;35.12;33.49;37.57;;
66449;Laerm;56828;52.294;4.666;2023-04-03T00:40:59;35.58;33.43;38.03;;
66449;Laerm;56828;52.294;4.666;2023-04-03T00:41:09;35.23;33.42;36.84;;
66449;Laerm;56828;52.294;4.666;2023-04-03T00:41:19;35.21;33.07;36.71;;
66449;Laerm;56828;52.294;4.666;2023-04-03T00:41:30;35.96;33.34;37.94;;
66449;Laerm;56828;52.294;4.666;2023-04-03T00:41:40;35.48;33.24;37.48;;
66449;Laerm;56828;52.294;4.666;2023-04-03T00:41:50;35.96;33.87;38.20;;
66449;Laerm;56828;52.294;4.666;2023-04-03T00:42:01;36.79;34.56;39.46;;
66449;Laerm;56828;52.294;4.666;2023-04-03T00:42:11;36.85;34.89;38.98;;
66449;Laerm;56828;52.294;4.666;2023-04-03T00:42:21;36.47;33.95;38.98;;
66449;Laerm;56828;52.294;4.666;2023-04-03T00:42:31;35.87;34.23;37.56;;
66449;Laerm;56828;52.294;4.666;2023-04-03T00:42:42;35.74;33.65;39.80;;
66449;Laerm;56828;52.294;4.666;2023-04-03T00:42:57;36.05;33.69;38.14;;
66449;Laerm;56828;52.294;4.666;2023-04-03T00:43:11;36.60;34.47;39.80;;
66449;Laerm;56828;52.294;4.666;2023-04-03T00:43:23;35.56;33.29;38.54;;
66449;Laerm;56828;52.294;4.666;2023-04-03T00:43:34;36.47;33.38;41.70;;
66449;Laerm;56828;52.294;4.666;2023-04-03T00:43:45;34.97;33.29;36.86;;
66449;Laerm;56828;52.294;4.666;2023-04-03T00:43:55;35.64;33.66;37.67;;
66449;Laerm;56828;52.294;4.666;2023-04-03T00:44:22;36.64;34.31;38.90;;
66449;Laerm;56828;52.294;4.666;2023-04-03T00:45:36;35.55;33.39;37.38;;
66449;Laerm;56828;52.294;4.666;2023-04-03T00:45:51;35.81;33.58;39.35;;
66449;Laerm;56828;52.294;4.666;2023-04-03T00:46:02;35.09;32.38;37.27;;
66449;Laerm;56828;52.294;4.666;2023-04-03T00:46:12;35.69;33.05;37.47;;
66449;Laerm;56828;52.294;4.666;2023-04-03T00:46:22;35.40;33.17;37.42;;
66449;Laerm;56828;52.294;4.666;2023-04-03T00:46:33;35.11;33.40;36.80;;
66449;Laerm;56828;52.294;4.666;2023-04-03T00:46:43;35.25;32.68;40.74;;
66449;Laerm;56828;52.294;4.666;2023-04-03T00:46:53;35.29;32.76;36.92;;
66449;Laerm;56828;52.294;4.666;2023-04-03T00:47:05;35.02;32.77;36.96;;
66449;Laerm;56828;52.294;4.666;2023-04-03T00:47:17;35.02;33.01;36.93;;
66449;Laerm;56828;52.294;4.666;2023-04-03T00:47:27;35.20;33.29;37.48;;
66449;Laerm;56828;52.294;4.666;2023-04-03T00:47:39;35.73;33.46;37.94;;
66449;Laerm;56828;52.294;4.666;2023-04-03T00:47:50;35.46;33.45;37.55;;
66449;Laerm;56828;52.294;4.666;2023-04-03T00:48:02;34.95;33.02;36.79;;
66449;Laerm;56828;52.294;4.666;2023-04-03T00:48:22;34.83;32.67;37.33;;
66449;Laerm;56828;52.294;4.666;2023-04-03T00:48:42;35.88;33.37;38.04;;
66449;Laerm;56828;52.294;4.666;2023-04-03T00:48:53;35.76;32.99;39.36;;
66449;Laerm;56828;52.294;4.666;2023-04-03T00:49:04;34.80;32.56;36.75;;
66449;Laerm;56828;52.294;4.666;2023-04-03T00:49:14;35.17;33.03;37.52;;
66449;Laerm;56828;52.294;4.666;2023-04-03T00:49:24;35.52;32.97;39.19;;
66449;Laerm;56828;52.294;4.666;2023-04-03T00:49:35;35.14;32.83;37.09;;
66449;Laerm;56828;52.294;4.666;2023-04-03T00:49:46;36.08;33.57;38.57;;
66449;Laerm;56828;52.294;4.666;2023-04-03T00:49:57;35.64;33.15;38.84;;
66449;Laerm;56828;52.294;4.666;2023-04-03T00:50:07;34.93;32.84;36.92;;
66449;Laerm;56828;52.294;4.666;2023-04-03T00:50:18;34.66;32.58;36.96;;
66449;Laerm;56828;52.294;4.666;2023-04-03T00:50:28;35.35;33.36;37.08;;
66449;Laerm;56828;52.294;4.666;2023-04-03T00:50:40;35.22;33.16;37.57;;
66449;Laerm;56828;52.294;4.666;2023-04-03T00:50:51;35.28;32.88;37.35;;
66449;Laerm;56828;52.294;4.666;2023-04-03T00:51:02;34.98;32.78;36.66;;
66449;Laerm;56828;52.294;4.666;2023-04-03T00:51:14;36.57;33.67;40.43;;
66449;Laerm;56828;52.294;4.666;2023-04-03T00:51:26;35.82;33.45;37.94;;
66449;Laerm;56828;52.294;4.666;2023-04-03T00:51:36;36.16;33.56;38.27;;
66449;Laerm;56828;52.294;4.666;2023-04-03T00:51:47;35.20;33.45;37.45;;
66449;Laerm;56828;52.294;4.666;2023-04-03T00:51:57;35.64;33.51;38.02;;
66449;Laerm;56828;52.294;4.666;2023-04-03T00:52:10;36.52;33.57;39.44;;
66449;Laerm;56828;52.294;4.666;2023-04-03T00:52:23;36.57;34.32;38.67;;
66449;Laerm;56828;52.294;4.666;2023-04-03T00:52:35;35.53;32.97;37.32;;
66449;Laerm;56828;52.294;4.666;2023-04-03T00:52:47;36.19;33.35;38.61;;
66449;Laerm;56828;52.294;4.666;2023-04-03T00:52:59;35.57;33.40;38.16;;
66449;Laerm;56828;52.294;4.666;2023-04-03T00:53:14;35.07;33.52;36.73;;
66449;Laerm;56828;52.294;4.666;2023-04-03T00:53:35;34.80;31.90;37.32;;
66449;Laerm;56828;52.294;4.666;2023-04-03T00:53:48;34.95;32.28;37.28;;
66449;Laerm;56828;52.294;4.666;2023-04-03T00:54:01;35.13;33.23;37.29;;
66449;Laerm;56828;52.294;4.666;2023-04-03T00:54:12;35.28;32.84;38.78;;
66449;Laerm;56828;52.294;4.666;2023-04-03T00:54:22;35.02;32.86;37.59;;
66449;Laerm;56828;52.294;4.666;2023-04-03T00:54:33;35.21;32.63;37.39;;
66449;Laerm;56828;52.294;4.666;2023-04-03T00:54:45;35.09;32.86;37.26;;
66449;Laerm;56828;52.294;4.666;2023-04-03T00:54:57;34.83;33.03;36.90;;
66449;Laerm;56828;52.294;4.666;2023-04-03T00:55:09;36.00;32.71;41.74;;
66449;Laerm;56828;52.294;4.666;2023-04-03T00:55:20;35.77;33.52;39.23;;
66449;Laerm;56828;52.294;4.666;2023-04-03T00:55:30;35.79;33.49;37.72;;
66449;Laerm;56828;52.294;4.666;2023-04-03T00:55:42;35.30;33.34;39.63;;
66449;Laerm;56828;52.294;4.666;2023-04-03T00:55:53;35.38;33.10;39.47;;
66449;Laerm;56828;52.294;4.666;2023-04-03T00:56:06;35.29;33.16;37.04;;
66449;Laerm;56828;52.294;4.666;2023-04-03T00:56:17;35.61;33.25;38.29;;
66449;Laerm;56828;52.294;4.666;2023-04-03T00:56:29;37.45;34.73;40.49;;
66449;Laerm;56828;52.294;4.666;2023-04-03T00:56:40;36.38;33.72;40.09;;
66449;Laerm;56828;52.294;4.666;2023-04-03T00:56:51;35.33;33.04;37.63;;
66449;Laerm;56828;52.294;4.666;2023-04-03T00:57:02;34.75;32.27;36.46;;
66449;Laerm;56828;52.294;4.666;2023-04-03T00:57:13;34.89;32.93;36.73;;
66449;Laerm;56828;52.294;4.666;2023-04-03T00:57:25;35.41;33.45;37.07;;
66449;Laerm;56828;52.294;4.666;2023-04-03T00:57:36;35.25;33.11;36.96;;
66449;Laerm;56828;52.294;4.666;2023-04-03T00:57:47;35.73;33.61;37.63;;
66449;Laerm;56828;52.294;4.666;2023-04-03T00:57:58;39.38;34.79;43.97;;
66449;Laerm;56828;52.294;4.666;2023-04-03T00:58:10;35.58;33.44;40.52;;
66449;Laerm;56828;52.294;4.666;2023-04-03T00:58:24;35.87;33.43;39.41;;
66449;Laerm;56828;52.294;4.666;2023-04-03T00:58:40;35.32;33.08;37.64;;
66449;Laerm;56828;52.294;4.666;2023-04-03T00:58:57;34.91;33.00;36.84;;
66449;Laerm;56828;52.294;4.666;2023-04-03T00:59:12;35.59;33.22;37.86;;
66449;Laerm;56828;52.294;4.666;2023-04-03T00:59:24;35.50;33.16;38.02;;
66449;Laerm;56828;52.294;4.666;2023-04-03T00:59:38;35.71;33.29;38.98;;
66449;Laerm;56828;52.294;4.666;2023-04-03T00:59:50;35.63;33.52;37.50;;
66449;Laerm;56828;52.294;4.666;2023-04-03T01:00:07;35.36;33.39;37.66;;
66449;Laerm;56828;52.294;4.666;2023-04-03T01:00:20;35.82;33.85;38.16;;
66449;Laerm;56828;52.294;4.666;2023-04-03T01:00:32;36.06;33.39;38.29;;
66449;Laerm;56828;52.294;4.666;2023-04-03T01:00:44;35.75;33.50;38.24;;
66449;Laerm;56828;52.294;4.666;2023-04-03T01:00:57;35.32;33.17;37.17;;
66449;Laerm;56828;52.294;4.666;2023-04-03T01:01:08;35.98;33.46;38.82;;
66449;Laerm;56828;52.294;4.666;2023-04-03T01:01:22;35.75;33.36;38.17;;
66449;Laerm;56828;52.294;4.666;2023-04-03T01:01:33;35.38;32.90;37.45;;
66449;Laerm;56828;52.294;4.666;2023-04-03T01:01:44;34.29;32.31;35.86;;
66449;Laerm;56828;52.294;4.666;2023-04-03T01:01:55;35.74;32.58;39.16;;
66449;Laerm;56828;52.294;4.666;2023-04-03T01:02:06;36.35;33.82;38.60;;
66449;Laerm;56828;52.294;4.666;2023-04-03T01:02:17;37.08;34.60;39.36;;
66449;Laerm;56828;52.294;4.666;2023-04-03T01:02:28;36.56;34.10;39.23;;
66449;Laerm;56828;52.294;4.666;2023-04-03T01:02:38;36.13;33.36;38.47;;
66449;Laerm;56828;52.294;4.666;2023-04-03T01:02:51;35.83;33.34;39.02;;
66449;Laerm;56828;52.294;4.666;2023-04-03T01:03:01;35.69;33.73;37.86;;
66449;Laerm;56828;52.294;4.666;2023-04-03T01:03:12;36.45;34.33;39.15;;
66449;Laerm;56828;52.294;4.666;2023-04-03T01:03:22;36.44;33.82;38.31;;